sensor_id;sensor_type;location;lat;lon;timestamp;P1;durP1;ratioP1;P2;durP2;ratioP2
12519;SDS011;6325;49.540;8.364;2023-03-24T00:00:23;1.88;;;1.77;;
12519;SDS011;6325;49.540;8.364;2023-03-24T00:02:51;1.85;;;1.75;;
12519;SDS011;6325;49.540;8.364;2023-03-24T00:05:18;1.77;;;1.70;;
12519;SDS011;6325;49.540;8.364;2023-03-24T00:07:47;1.80;;;1.70;;
12519;SDS011;6325;49.540;8.364;2023-03-24T00:10:15;1.63;;;1.60;;
12519;SDS011;6325;49.540;8.364;2023-03-24T00:12:43;1.60;;;1.60;;
12519;SDS011;6325;49.540;8.364;2023-03-24T00:15:11;1.80;;;1.70;;
12519;SDS011;6325;49.540;8.364;2023-03-24T00:17:43;2.03;;;1.92;;
12519;SDS011;6325;49.540;8.364;2023-03-24T00:20:12;2.17;;;2.08;;
12519;SDS011;6325;49.540;8.364;2023-03-24T00:22:41;2.20;;;2.10;;
12519;SDS011;6325;49.540;8.364;2023-03-24T00:25:14;2.55;;;2.35;;
12519;SDS011;6325;49.540;8.364;2023-03-24T00:27:42;2.20;;;2.10;;
12519;SDS011;6325;49.540;8.364;2023-03-24T00:30:13;2.38;;;2.25;;
12519;SDS011;6325;49.540;8.364;2023-03-24T00:32:41;2.80;;;2.60;;
12519;SDS011;6325;49.540;8.364;2023-03-24T00:35:09;2.67;;;2.50;;
12519;SDS011;6325;49.540;8.364;2023-03-24T00:37:37;2.80;;;2.60;;
12519;SDS011;6325;49.540;8.364;2023-03-24T00:40:06;2.90;;;2.70;;
12519;SDS011;6325;49.540;8.364;2023-03-24T00:42:39;2.80;;;2.60;;
12519;SDS011;6325;49.540;8.364;2023-03-24T00:45:10;2.90;;;2.70;;
12519;SDS011;6325;49.540;8.364;2023-03-24T00:47:39;2.70;;;2.50;;
12519;SDS011;6325;49.540;8.364;2023-03-24T00:50:10;3.00;;;2.80;;
12519;SDS011;6325;49.540;8.364;2023-03-24T00:52:39;2.80;;;2.60;;
12519;SDS011;6325;49.540;8.364;2023-03-24T00:55:08;2.90;;;2.70;;
12519;SDS011;6325;49.540;8.364;2023-03-24T00:57:42;2.80;;;2.60;;
12519;SDS011;6325;49.540;8.364;2023-03-24T01:00:14;2.92;;;2.72;;
12519;SDS011;6325;49.540;8.364;2023-03-24T01:02:43;2.60;;;2.50;;
12519;SDS011;6325;49.540;8.364;2023-03-24T01:05:11;2.60;;;2.40;;
12519;SDS011;6325;49.540;8.364;2023-03-24T01:07:42;2.60;;;2.40;;
12519;SDS011;6325;49.540;8.364;2023-03-24T01:10:10;2.50;;;2.40;;
12519;SDS011;6325;49.540;8.364;2023-03-24T01:12:40;2.40;;;2.30;;
12519;SDS011;6325;49.540;8.364;2023-03-24T01:15:08;2.60;;;2.40;;
12519;SDS011;6325;49.540;8.364;2023-03-24T01:17:38;2.57;;;2.37;;
12519;SDS011;6325;49.540;8.364;2023-03-24T01:20:06;2.80;;;2.60;;
12519;SDS011;6325;49.540;8.364;2023-03-24T01:22:35;2.95;;;2.75;;
12519;SDS011;6325;49.540;8.364;2023-03-24T01:25:04;2.85;;;2.70;;
12519;SDS011;6325;49.540;8.364;2023-03-24T01:27:33;3.05;;;2.75;;
12519;SDS011;6325;49.540;8.364;2023-03-24T01:30:02;3.00;;;2.80;;
12519;SDS011;6325;49.540;8.364;2023-03-24T01:32:30;2.80;;;2.60;;
12519;SDS011;6325;49.540;8.364;2023-03-24T01:34:58;2.67;;;2.47;;
12519;SDS011;6325;49.540;8.364;2023-03-24T01:37:25;2.93;;;2.73;;
12519;SDS011;6325;49.540;8.364;2023-03-24T01:39:52;2.80;;;2.70;;
12519;SDS011;6325;49.540;8.364;2023-03-24T01:42:20;2.92;;;2.72;;
12519;SDS011;6325;49.540;8.364;2023-03-24T01:44:49;2.80;;;2.60;;
12519;SDS011;6325;49.540;8.364;2023-03-24T01:47:18;2.53;;;2.40;;
12519;SDS011;6325;49.540;8.364;2023-03-24T01:49:45;2.50;;;2.30;;
12519;SDS011;6325;49.540;8.364;2023-03-24T01:52:18;2.53;;;2.33;;
12519;SDS011;6325;49.540;8.364;2023-03-24T01:54:47;2.65;;;2.45;;
12519;SDS011;6325;49.540;8.364;2023-03-24T01:57:21;2.50;;;2.30;;
12519;SDS011;6325;49.540;8.364;2023-03-24T01:59:52;2.30;;;2.20;;
12519;SDS011;6325;49.540;8.364;2023-03-24T02:02:23;2.40;;;2.20;;
12519;SDS011;6325;49.540;8.364;2023-03-24T02:04:51;2.50;;;2.30;;
12519;SDS011;6325;49.540;8.364;2023-03-24T02:07:26;2.20;;;2.10;;
12519;SDS011;6325;49.540;8.364;2023-03-24T02:09:56;2.17;;;2.08;;
12519;SDS011;6325;49.540;8.364;2023-03-24T02:12:23;2.20;;;2.00;;
12519;SDS011;6325;49.540;8.364;2023-03-24T02:14:51;2.30;;;2.10;;
12519;SDS011;6325;49.540;8.364;2023-03-24T02:17:26;2.10;;;2.00;;
12519;SDS011;6325;49.540;8.364;2023-03-24T02:26:28;2.20;;;2.10;;
12519;SDS011;6325;49.540;8.364;2023-03-24T02:29:21;2.20;;;2.10;;
12519;SDS011;6325;49.540;8.364;2023-03-24T02:32:21;2.03;;;1.92;;
12519;SDS011;6325;49.540;8.364;2023-03-24T02:35:08;2.20;;;2.10;;
12519;SDS011;6325;49.540;8.364;2023-03-24T02:38:07;2.55;;;2.35;;
12519;SDS011;6325;49.540;8.364;2023-03-24T02:40:52;2.28;;;1.88;;
12519;SDS011;6325;49.540;8.364;2023-03-24T02:43:28;1.90;;;1.80;;
12519;SDS011;6325;49.540;8.364;2023-03-24T02:46:06;2.13;;;1.93;;
12519;SDS011;6325;49.540;8.364;2023-03-24T02:48:43;2.10;;;2.00;;
12519;SDS011;6325;49.540;8.364;2023-03-24T02:51:22;2.15;;;2.05;;
12519;SDS011;6325;49.540;8.364;2023-03-24T02:53:53;2.37;;;2.20;;
12519;SDS011;6325;49.540;8.364;2023-03-24T02:56:31;2.25;;;2.10;;
12519;SDS011;6325;49.540;8.364;2023-03-24T02:59:04;2.40;;;2.20;;
12519;SDS011;6325;49.540;8.364;2023-03-24T03:01:33;2.30;;;2.20;;
12519;SDS011;6325;49.540;8.364;2023-03-24T03:04:06;2.15;;;2.05;;
12519;SDS011;6325;49.540;8.364;2023-03-24T03:06:37;2.23;;;2.13;;
12519;SDS011;6325;49.540;8.364;2023-03-24T03:09:07;2.10;;;2.00;;
12519;SDS011;6325;49.540;8.364;2023-03-24T03:11:38;1.98;;;1.88;;
12519;SDS011;6325;49.540;8.364;2023-03-24T03:14:08;1.90;;;1.80;;
12519;SDS011;6325;49.540;8.364;2023-03-24T03:16:38;2.10;;;2.00;;
12519;SDS011;6325;49.540;8.364;2023-03-24T03:19:11;2.30;;;2.10;;
12519;SDS011;6325;49.540;8.364;2023-03-24T03:21:43;2.00;;;1.90;;
12519;SDS011;6325;49.540;8.364;2023-03-24T03:24:11;2.25;;;2.10;;
12519;SDS011;6325;49.540;8.364;2023-03-24T03:26:43;2.30;;;2.20;;
12519;SDS011;6325;49.540;8.364;2023-03-24T03:29:14;2.00;;;1.90;;
12519;SDS011;6325;49.540;8.364;2023-03-24T03:31:46;2.05;;;1.95;;
12519;SDS011;6325;49.540;8.364;2023-03-24T03:34:19;2.00;;;1.90;;
12519;SDS011;6325;49.540;8.364;2023-03-24T03:36:56;2.20;;;2.10;;
12519;SDS011;6325;49.540;8.364;2023-03-24T03:39:27;2.55;;;2.35;;
12519;SDS011;6325;49.540;8.364;2023-03-24T03:41:57;1.98;;;1.88;;
12519;SDS011;6325;49.540;8.364;2023-03-24T03:44:24;2.63;;;2.00;;
12519;SDS011;6325;49.540;8.364;2023-03-24T03:46:51;2.20;;;2.00;;
12519;SDS011;6325;49.540;8.364;2023-03-24T03:49:18;2.17;;;2.08;;
12519;SDS011;6325;49.540;8.364;2023-03-24T03:51:45;2.20;;;2.10;;
12519;SDS011;6325;49.540;8.364;2023-03-24T03:54:13;1.95;;;1.85;;
12519;SDS011;6325;49.540;8.364;2023-03-24T03:56:43;2.30;;;2.10;;
12519;SDS011;6325;49.540;8.364;2023-03-24T03:59:22;1.90;;;1.80;;
12519;SDS011;6325;49.540;8.364;2023-03-24T04:01:51;2.65;;;2.03;;
12519;SDS011;6325;49.540;8.364;2023-03-24T04:04:35;1.90;;;1.80;;
12519;SDS011;6325;49.540;8.364;2023-03-24T04:07:22;5.35;;;3.83;;
12519;SDS011;6325;49.540;8.364;2023-03-24T04:09:57;1.90;;;1.80;;
12519;SDS011;6325;49.540;8.364;2023-03-24T04:12:37;2.13;;;2.03;;
12519;SDS011;6325;49.540;8.364;2023-03-24T04:15:41;2.30;;;2.10;;
12519;SDS011;6325;49.540;8.364;2023-03-24T04:18:21;1.80;;;1.70;;
12519;SDS011;6325;49.540;8.364;2023-03-24T04:21:02;2.30;;;2.20;;
12519;SDS011;6325;49.540;8.364;2023-03-24T04:23:39;2.03;;;1.90;;
12519;SDS011;6325;49.540;8.364;2023-03-24T04:26:14;2.10;;;1.90;;
12519;SDS011;6325;49.540;8.364;2023-03-24T04:28:53;2.10;;;2.00;;
12519;SDS011;6325;49.540;8.364;2023-03-24T04:31:30;3.85;;;3.25;;
12519;SDS011;6325;49.540;8.364;2023-03-24T04:34:02;3.72;;;2.97;;
12519;SDS011;6325;49.540;8.364;2023-03-24T04:36:34;1.77;;;1.67;;
12519;SDS011;6325;49.540;8.364;2023-03-24T04:39:07;1.77;;;1.67;;
12519;SDS011;6325;49.540;8.364;2023-03-24T04:41:36;1.60;;;1.60;;
12519;SDS011;6325;49.540;8.364;2023-03-24T04:44:04;1.80;;;1.70;;
12519;SDS011;6325;49.540;8.364;2023-03-24T04:46:32;1.90;;;1.80;;
12519;SDS011;6325;49.540;8.364;2023-03-24T04:49:00;1.67;;;1.60;;
12519;SDS011;6325;49.540;8.364;2023-03-24T04:51:28;1.75;;;1.70;;
12519;SDS011;6325;49.540;8.364;2023-03-24T04:53:55;1.70;;;1.60;;
12519;SDS011;6325;49.540;8.364;2023-03-24T04:56:26;1.80;;;1.70;;
12519;SDS011;6325;49.540;8.364;2023-03-24T04:58:55;1.85;;;1.75;;
12519;SDS011;6325;49.540;8.364;2023-03-24T05:01:22;1.60;;;1.60;;
12519;SDS011;6325;49.540;8.364;2023-03-24T05:03:55;1.75;;;1.70;;
12519;SDS011;6325;49.540;8.364;2023-03-24T05:06:22;1.90;;;1.80;;
12519;SDS011;6325;49.540;8.364;2023-03-24T05:08:49;1.80;;;1.70;;
12519;SDS011;6325;49.540;8.364;2023-03-24T05:11:17;1.80;;;1.70;;
12519;SDS011;6325;49.540;8.364;2023-03-24T05:13:45;1.67;;;1.58;;
12519;SDS011;6325;49.540;8.364;2023-03-24T05:16:12;1.90;;;1.80;;
12519;SDS011;6325;49.540;8.364;2023-03-24T05:18:40;1.70;;;1.60;;
12519;SDS011;6325;49.540;8.364;2023-03-24T05:21:08;1.75;;;1.70;;
12519;SDS011;6325;49.540;8.364;2023-03-24T05:23:35;1.80;;;1.70;;
12519;SDS011;6325;49.540;8.364;2023-03-24T05:26:02;1.93;;;1.80;;
12519;SDS011;6325;49.540;8.364;2023-03-24T05:28:30;1.70;;;1.60;;
12519;SDS011;6325;49.540;8.364;2023-03-24T05:30:57;1.60;;;1.50;;
12519;SDS011;6325;49.540;8.364;2023-03-24T05:33:24;1.65;;;1.55;;
12519;SDS011;6325;49.540;8.364;2023-03-24T05:35:51;1.67;;;1.58;;
12519;SDS011;6325;49.540;8.364;2023-03-24T05:38:19;1.10;;;1.10;;
12519;SDS011;6325;49.540;8.364;2023-03-24T05:40:46;1.33;;;1.23;;
12519;SDS011;6325;49.540;8.364;2023-03-24T05:43:13;1.27;;;1.25;;
12519;SDS011;6325;49.540;8.364;2023-03-24T05:45:40;1.50;;;1.40;;
12519;SDS011;6325;49.540;8.364;2023-03-24T05:48:07;1.30;;;1.30;;
12519;SDS011;6325;49.540;8.364;2023-03-24T05:50:35;1.70;;;1.60;;
12519;SDS011;6325;49.540;8.364;2023-03-24T05:53:02;2.20;;;2.00;;
12519;SDS011;6325;49.540;8.364;2023-03-24T05:55:30;1.85;;;1.75;;
12519;SDS011;6325;49.540;8.364;2023-03-24T05:57:57;2.10;;;2.00;;
12519;SDS011;6325;49.540;8.364;2023-03-24T06:00:26;2.22;;;2.03;;
12519;SDS011;6325;49.540;8.364;2023-03-24T06:02:54;1.50;;;1.40;;
12519;SDS011;6325;49.540;8.364;2023-03-24T06:05:22;1.10;;;1.10;;
12519;SDS011;6325;49.540;8.364;2023-03-24T06:07:49;1.23;;;1.23;;
12519;SDS011;6325;49.540;8.364;2023-03-24T06:10:22;1.20;;;1.10;;
12519;SDS011;6325;49.540;8.364;2023-03-24T06:12:51;1.25;;;1.20;;
12519;SDS011;6325;49.540;8.364;2023-03-24T06:15:19;1.05;;;1.05;;
12519;SDS011;6325;49.540;8.364;2023-03-24T06:17:48;1.17;;;1.10;;
12519;SDS011;6325;49.540;8.364;2023-03-24T06:20:18;1.20;;;1.20;;
12519;SDS011;6325;49.540;8.364;2023-03-24T06:22:46;0.95;;;0.95;;
12519;SDS011;6325;49.540;8.364;2023-03-24T06:25:14;1.10;;;1.10;;
12519;SDS011;6325;49.540;8.364;2023-03-24T06:27:44;1.00;;;1.00;;
12519;SDS011;6325;49.540;8.364;2023-03-24T06:30:14;1.08;;;1.08;;
12519;SDS011;6325;49.540;8.364;2023-03-24T06:32:42;1.30;;;1.20;;
12519;SDS011;6325;49.540;8.364;2023-03-24T06:35:10;1.20;;;1.10;;
12519;SDS011;6325;49.540;8.364;2023-03-24T06:37:38;1.35;;;1.30;;
12519;SDS011;6325;49.540;8.364;2023-03-24T06:40:05;1.20;;;1.20;;
12519;SDS011;6325;49.540;8.364;2023-03-24T06:42:34;1.20;;;1.20;;
12519;SDS011;6325;49.540;8.364;2023-03-24T06:45:02;1.40;;;1.30;;
12519;SDS011;6325;49.540;8.364;2023-03-24T06:47:30;1.35;;;1.35;;
12519;SDS011;6325;49.540;8.364;2023-03-24T06:49:57;1.33;;;1.33;;
12519;SDS011;6325;49.540;8.364;2023-03-24T06:52:24;1.30;;;1.30;;
12519;SDS011;6325;49.540;8.364;2023-03-24T06:54:52;1.33;;;1.33;;
12519;SDS011;6325;49.540;8.364;2023-03-24T06:57:18;1.42;;;1.42;;
12519;SDS011;6325;49.540;8.364;2023-03-24T06:59:45;1.40;;;1.40;;
12519;SDS011;6325;49.540;8.364;2023-03-24T07:02:12;1.40;;;1.40;;
12519;SDS011;6325;49.540;8.364;2023-03-24T07:04:41;1.75;;;1.65;;
12519;SDS011;6325;49.540;8.364;2023-03-24T07:07:09;1.35;;;1.35;;
12519;SDS011;6325;49.540;8.364;2023-03-24T07:09:36;1.63;;;1.53;;
12519;SDS011;6325;49.540;8.364;2023-03-24T07:12:04;1.65;;;1.55;;
12519;SDS011;6325;49.540;8.364;2023-03-24T07:14:31;1.55;;;1.55;;
12519;SDS011;6325;49.540;8.364;2023-03-24T07:16:58;1.40;;;1.40;;
12519;SDS011;6325;49.540;8.364;2023-03-24T07:19:26;1.50;;;1.50;;
12519;SDS011;6325;49.540;8.364;2023-03-24T07:21:54;1.80;;;1.70;;
12519;SDS011;6325;49.540;8.364;2023-03-24T07:24:21;1.67;;;1.65;;
12519;SDS011;6325;49.540;8.364;2023-03-24T07:26:48;1.55;;;1.50;;
12519;SDS011;6325;49.540;8.364;2023-03-24T07:29:15;1.65;;;1.55;;
12519;SDS011;6325;49.540;8.364;2023-03-24T07:31:42;1.83;;;1.73;;
12519;SDS011;6325;49.540;8.364;2023-03-24T07:34:11;1.60;;;1.50;;
12519;SDS011;6325;49.540;8.364;2023-03-24T07:36:38;1.35;;;1.35;;
12519;SDS011;6325;49.540;8.364;2023-03-24T07:39:06;1.30;;;1.30;;
12519;SDS011;6325;49.540;8.364;2023-03-24T07:41:33;1.15;;;1.15;;
12519;SDS011;6325;49.540;8.364;2023-03-24T07:44:00;1.40;;;1.40;;
12519;SDS011;6325;49.540;8.364;2023-03-24T07:46:27;1.50;;;1.40;;
12519;SDS011;6325;49.540;8.364;2023-03-24T07:48:54;2.15;;;1.55;;
12519;SDS011;6325;49.540;8.364;2023-03-24T07:51:21;1.75;;;1.65;;
12519;SDS011;6325;49.540;8.364;2023-03-24T07:53:48;1.80;;;1.65;;
12519;SDS011;6325;49.540;8.364;2023-03-24T07:56:16;1.70;;;1.60;;
12519;SDS011;6325;49.540;8.364;2023-03-24T07:58:43;1.70;;;1.60;;
12519;SDS011;6325;49.540;8.364;2023-03-24T08:01:11;1.63;;;1.52;;
12519;SDS011;6325;49.540;8.364;2023-03-24T08:03:38;1.80;;;1.70;;
12519;SDS011;6325;49.540;8.364;2023-03-24T08:06:06;1.67;;;1.57;;
12519;SDS011;6325;49.540;8.364;2023-03-24T08:08:34;1.80;;;1.70;;
12519;SDS011;6325;49.540;8.364;2023-03-24T08:11:01;1.85;;;1.67;;
12519;SDS011;6325;49.540;8.364;2023-03-24T08:13:30;1.85;;;1.75;;
12519;SDS011;6325;49.540;8.364;2023-03-24T08:15:56;1.70;;;1.70;;
12519;SDS011;6325;49.540;8.364;2023-03-24T08:18:23;1.70;;;1.70;;
12519;SDS011;6325;49.540;8.364;2023-03-24T08:20:53;1.85;;;1.75;;
12519;SDS011;6325;49.540;8.364;2023-03-24T08:23:23;2.00;;;1.90;;
12519;SDS011;6325;49.540;8.364;2023-03-24T08:25:51;2.00;;;1.90;;
12519;SDS011;6325;49.540;8.364;2023-03-24T08:28:18;1.83;;;1.70;;
12519;SDS011;6325;49.540;8.364;2023-03-24T08:30:47;1.70;;;1.60;;
12519;SDS011;6325;49.540;8.364;2023-03-24T08:33:14;2.15;;;1.80;;
12519;SDS011;6325;49.540;8.364;2023-03-24T08:35:42;1.80;;;1.70;;
12519;SDS011;6325;49.540;8.364;2023-03-24T08:38:10;1.70;;;1.60;;
12519;SDS011;6325;49.540;8.364;2023-03-24T08:40:39;2.10;;;1.70;;
12519;SDS011;6325;49.540;8.364;2023-03-24T08:43:09;1.80;;;1.70;;
12519;SDS011;6325;49.540;8.364;2023-03-24T08:45:39;2.05;;;1.95;;
12519;SDS011;6325;49.540;8.364;2023-03-24T08:48:08;1.90;;;1.80;;
12519;SDS011;6325;49.540;8.364;2023-03-24T08:50:36;1.73;;;1.70;;
12519;SDS011;6325;49.540;8.364;2023-03-24T08:53:04;1.70;;;1.60;;
12519;SDS011;6325;49.540;8.364;2023-03-24T08:55:32;1.80;;;1.70;;
12519;SDS011;6325;49.540;8.364;2023-03-24T08:58:01;1.70;;;1.60;;
12519;SDS011;6325;49.540;8.364;2023-03-24T09:00:28;1.60;;;1.50;;
12519;SDS011;6325;49.540;8.364;2023-03-24T09:02:55;1.70;;;1.60;;
12519;SDS011;6325;49.540;8.364;2023-03-24T09:05:24;1.75;;;1.65;;
12519;SDS011;6325;49.540;8.364;2023-03-24T09:07:51;1.80;;;1.70;;
12519;SDS011;6325;49.540;8.364;2023-03-24T09:10:17;1.70;;;1.60;;
12519;SDS011;6325;49.540;8.364;2023-03-24T09:12:46;1.30;;;1.30;;
12519;SDS011;6325;49.540;8.364;2023-03-24T09:15:13;1.70;;;1.60;;
12519;SDS011;6325;49.540;8.364;2023-03-24T09:17:40;5.90;;;2.10;;
12519;SDS011;6325;49.540;8.364;2023-03-24T09:20:09;1.40;;;1.40;;
12519;SDS011;6325;49.540;8.364;2023-03-24T09:22:39;1.60;;;1.50;;
12519;SDS011;6325;49.540;8.364;2023-03-24T09:25:08;1.63;;;1.52;;
12519;SDS011;6325;49.540;8.364;2023-03-24T09:27:37;1.60;;;1.50;;
12519;SDS011;6325;49.540;8.364;2023-03-24T09:30:05;1.75;;;1.65;;
12519;SDS011;6325;49.540;8.364;2023-03-24T09:32:33;1.60;;;1.50;;
12519;SDS011;6325;49.540;8.364;2023-03-24T09:35:00;1.60;;;1.50;;
12519;SDS011;6325;49.540;8.364;2023-03-24T09:37:28;1.77;;;1.75;;
12519;SDS011;6325;49.540;8.364;2023-03-24T09:39:56;1.40;;;1.40;;
12519;SDS011;6325;49.540;8.364;2023-03-24T09:42:25;1.60;;;1.60;;
12519;SDS011;6325;49.540;8.364;2023-03-24T09:44:56;1.75;;;1.70;;
12519;SDS011;6325;49.540;8.364;2023-03-24T09:47:29;1.77;;;1.67;;
12519;SDS011;6325;49.540;8.364;2023-03-24T09:50:00;1.70;;;1.50;;
12519;SDS011;6325;49.540;8.364;2023-03-24T09:52:32;1.60;;;1.50;;
12519;SDS011;6325;49.540;8.364;2023-03-24T09:55:04;1.40;;;1.30;;
12519;SDS011;6325;49.540;8.364;2023-03-24T09:57:38;2.03;;;1.83;;
12519;SDS011;6325;49.540;8.364;2023-03-24T10:00:08;1.70;;;1.60;;
12519;SDS011;6325;49.540;8.364;2023-03-24T10:02:42;1.85;;;1.75;;
12519;SDS011;6325;49.540;8.364;2023-03-24T10:05:13;1.80;;;1.70;;
12519;SDS011;6325;49.540;8.364;2023-03-24T10:07:43;1.63;;;1.58;;
12519;SDS011;6325;49.540;8.364;2023-03-24T10:10:19;2.05;;;1.90;;
12519;SDS011;6325;49.540;8.364;2023-03-24T10:12:53;2.00;;;1.90;;
12519;SDS011;6325;49.540;8.364;2023-03-24T10:15:31;2.30;;;2.20;;
12519;SDS011;6325;49.540;8.364;2023-03-24T10:18:09;3.13;;;2.92;;
12519;SDS011;6325;49.540;8.364;2023-03-24T10:20:50;1.80;;;1.70;;
12519;SDS011;6325;49.540;8.364;2023-03-24T10:23:23;1.58;;;1.50;;
12519;SDS011;6325;49.540;8.364;2023-03-24T10:26:01;1.67;;;1.58;;
12519;SDS011;6325;49.540;8.364;2023-03-24T10:28:35;1.92;;;1.83;;
12519;SDS011;6325;49.540;8.364;2023-03-24T10:31:09;1.83;;;1.73;;
12519;SDS011;6325;49.540;8.364;2023-03-24T10:33:39;1.48;;;1.40;;
12519;SDS011;6325;49.540;8.364;2023-03-24T10:36:08;1.30;;;1.20;;
12519;SDS011;6325;49.540;8.364;2023-03-24T10:38:38;1.50;;;1.40;;
12519;SDS011;6325;49.540;8.364;2023-03-24T10:41:08;1.58;;;1.48;;
12519;SDS011;6325;49.540;8.364;2023-03-24T10:43:40;1.27;;;1.17;;
12519;SDS011;6325;49.540;8.364;2023-03-24T10:46:09;3.78;;;2.78;;
12519;SDS011;6325;49.540;8.364;2023-03-24T10:48:41;2.08;;;1.42;;
12519;SDS011;6325;49.540;8.364;2023-03-24T10:51:15;1.10;;;1.00;;
12519;SDS011;6325;49.540;8.364;2023-03-24T10:53:44;3.07;;;1.90;;
12519;SDS011;6325;49.540;8.364;2023-03-24T10:56:16;1.25;;;1.15;;
12519;SDS011;6325;49.540;8.364;2023-03-24T10:58:44;1.95;;;1.70;;
12519;SDS011;6325;49.540;8.364;2023-03-24T11:01:22;3.58;;;2.30;;
12519;SDS011;6325;49.540;8.364;2023-03-24T11:03:51;3.92;;;2.72;;
12519;SDS011;6325;49.540;8.364;2023-03-24T11:06:23;2.67;;;2.10;;
12519;SDS011;6325;49.540;8.364;2023-03-24T11:11:34;1.27;;;1.13;;
12519;SDS011;6325;49.540;8.364;2023-03-24T11:14:01;2.08;;;1.40;;
12519;SDS011;6325;49.540;8.364;2023-03-24T11:16:29;2.08;;;1.48;;
12519;SDS011;6325;49.540;8.364;2023-03-24T11:19:01;2.17;;;1.60;;
12519;SDS011;6325;49.540;8.364;2023-03-24T11:21:30;5.85;;;3.47;;
12519;SDS011;6325;49.540;8.364;2023-03-24T11:24:00;6.40;;;3.78;;
12519;SDS011;6325;49.540;8.364;2023-03-24T11:26:29;5.72;;;3.08;;
12519;SDS011;6325;49.540;8.364;2023-03-24T11:29:00;4.68;;;2.70;;
12519;SDS011;6325;49.540;8.364;2023-03-24T11:31:32;5.43;;;3.63;;
12519;SDS011;6325;49.540;8.364;2023-03-24T11:34:05;3.43;;;2.00;;
12519;SDS011;6325;49.540;8.364;2023-03-24T11:36:41;7.45;;;4.65;;
12519;SDS011;6325;49.540;8.364;2023-03-24T11:39:13;8.95;;;5.05;;
12519;SDS011;6325;49.540;8.364;2023-03-24T11:41:43;3.78;;;2.35;;
12519;SDS011;6325;49.540;8.364;2023-03-24T11:44:18;1.55;;;1.27;;
12519;SDS011;6325;49.540;8.364;2023-03-24T11:46:47;5.20;;;3.00;;
12519;SDS011;6325;49.540;8.364;2023-03-24T11:49:18;7.20;;;3.80;;
12519;SDS011;6325;49.540;8.364;2023-03-24T11:51:49;4.72;;;2.90;;
12519;SDS011;6325;49.540;8.364;2023-03-24T11:54:19;8.25;;;4.80;;
12519;SDS011;6325;49.540;8.364;2023-03-24T11:56:49;7.25;;;4.32;;
12519;SDS011;6325;49.540;8.364;2023-03-24T11:59:22;4.45;;;2.72;;
12519;SDS011;6325;49.540;8.364;2023-03-24T12:01:59;2.60;;;1.60;;
12519;SDS011;6325;49.540;8.364;2023-03-24T12:10:39;5.35;;;3.35;;
12519;SDS011;6325;49.540;8.364;2023-03-24T12:13:16;1.00;;;0.90;;
12519;SDS011;6325;49.540;8.364;2023-03-24T12:15:54;0.55;;;0.55;;
12519;SDS011;6325;49.540;8.364;2023-03-24T12:18:29;2.63;;;2.20;;
12519;SDS011;6325;49.540;8.364;2023-03-24T12:21:13;1.75;;;1.40;;
12519;SDS011;6325;49.540;8.364;2023-03-24T12:23:50;2.25;;;1.90;;
12519;SDS011;6325;49.540;8.364;2023-03-24T12:26:22;2.70;;;2.05;;
12519;SDS011;6325;49.540;8.364;2023-03-24T12:31:56;2.88;;;2.13;;
12519;SDS011;6325;49.540;8.364;2023-03-24T12:37:47;7.05;;;4.65;;
12519;SDS011;6325;49.540;8.364;2023-03-24T12:43:36;2.88;;;2.20;;
12519;SDS011;6325;49.540;8.364;2023-03-24T12:46:17;4.00;;;2.65;;
12519;SDS011;6325;49.540;8.364;2023-03-24T12:48:58;3.75;;;2.40;;
12519;SDS011;6325;49.540;8.364;2023-03-24T12:51:39;5.57;;;3.33;;
12519;SDS011;6325;49.540;8.364;2023-03-24T12:54:16;5.32;;;3.28;;
12519;SDS011;6325;49.540;8.364;2023-03-24T12:56:52;3.93;;;2.93;;
12519;SDS011;6325;49.540;8.364;2023-03-24T12:59:25;8.25;;;4.95;;
12519;SDS011;6325;49.540;8.364;2023-03-24T13:01:59;1.60;;;1.50;;
12519;SDS011;6325;49.540;8.364;2023-03-24T13:04:32;2.95;;;1.83;;
12519;SDS011;6325;49.540;8.364;2023-03-24T13:07:04;4.93;;;3.22;;
12519;SDS011;6325;49.540;8.364;2023-03-24T13:09:36;4.40;;;2.70;;
12519;SDS011;6325;49.540;8.364;2023-03-24T13:12:11;2.75;;;1.85;;
12519;SDS011;6325;49.540;8.364;2023-03-24T13:14:45;4.55;;;2.65;;
12519;SDS011;6325;49.540;8.364;2023-03-24T13:17:17;6.10;;;4.32;;
12519;SDS011;6325;49.540;8.364;2023-03-24T13:19:49;7.65;;;4.85;;
12519;SDS011;6325;49.540;8.364;2023-03-24T13:22:19;9.20;;;5.68;;
12519;SDS011;6325;49.540;8.364;2023-03-24T13:24:48;8.70;;;5.05;;
12519;SDS011;6325;49.540;8.364;2023-03-24T13:27:18;6.53;;;4.10;;
12519;SDS011;6325;49.540;8.364;2023-03-24T13:29:57;6.35;;;3.78;;
12519;SDS011;6325;49.540;8.364;2023-03-24T13:32:32;5.88;;;3.85;;
12519;SDS011;6325;49.540;8.364;2023-03-24T13:35:06;2.70;;;2.10;;
12519;SDS011;6325;49.540;8.364;2023-03-24T13:37:41;3.22;;;2.20;;
12519;SDS011;6325;49.540;8.364;2023-03-24T13:40:17;4.18;;;2.83;;
12519;SDS011;6325;49.540;8.364;2023-03-24T13:42:47;4.63;;;3.10;;
12519;SDS011;6325;49.540;8.364;2023-03-24T13:45:23;3.75;;;2.20;;
12519;SDS011;6325;49.540;8.364;2023-03-24T13:48:02;1.95;;;1.45;;
12519;SDS011;6325;49.540;8.364;2023-03-24T13:50:33;1.65;;;1.50;;
12519;SDS011;6325;49.540;8.364;2023-03-24T13:53:06;1.20;;;1.10;;
12519;SDS011;6325;49.540;8.364;2023-03-24T13:55:39;1.52;;;1.42;;
12519;SDS011;6325;49.540;8.364;2023-03-24T13:58:14;2.30;;;1.85;;
12519;SDS011;6325;49.540;8.364;2023-03-24T14:01:03;6.40;;;4.03;;
12519;SDS011;6325;49.540;8.364;2023-03-24T14:03:41;2.88;;;2.40;;
12519;SDS011;6325;49.540;8.364;2023-03-24T14:06:11;2.17;;;1.40;;
12519;SDS011;6325;49.540;8.364;2023-03-24T14:08:43;1.77;;;1.10;;
12519;SDS011;6325;49.540;8.364;2023-03-24T14:14:18;2.80;;;2.00;;
12519;SDS011;6325;49.540;8.364;2023-03-24T14:16:50;8.52;;;4.35;;
12519;SDS011;6325;49.540;8.364;2023-03-24T14:19:28;6.03;;;3.92;;
12519;SDS011;6325;49.540;8.364;2023-03-24T14:22:02;12.43;;;6.47;;
12519;SDS011;6325;49.540;8.364;2023-03-24T14:24:35;5.07;;;2.70;;
12519;SDS011;6325;49.540;8.364;2023-03-24T14:30:02;3.20;;;1.80;;
12519;SDS011;6325;49.540;8.364;2023-03-24T14:32:35;7.60;;;4.25;;
12519;SDS011;6325;49.540;8.364;2023-03-24T14:35:04;6.05;;;3.33;;
12519;SDS011;6325;49.540;8.364;2023-03-24T14:37:50;5.70;;;3.83;;
12519;SDS011;6325;49.540;8.364;2023-03-24T14:40:24;7.70;;;4.05;;
12519;SDS011;6325;49.540;8.364;2023-03-24T14:42:54;10.82;;;5.78;;
12519;SDS011;6325;49.540;8.364;2023-03-24T14:45:36;5.88;;;3.40;;
12519;SDS011;6325;49.540;8.364;2023-03-24T14:48:14;4.47;;;2.73;;
12519;SDS011;6325;49.540;8.364;2023-03-24T14:50:57;2.67;;;1.63;;
12519;SDS011;6325;49.540;8.364;2023-03-24T14:53:30;2.42;;;1.60;;
12519;SDS011;6325;49.540;8.364;2023-03-24T14:56:03;4.18;;;2.40;;
12519;SDS011;6325;49.540;8.364;2023-03-24T14:58:34;6.05;;;3.28;;
12519;SDS011;6325;49.540;8.364;2023-03-24T15:01:03;3.23;;;2.20;;
12519;SDS011;6325;49.540;8.364;2023-03-24T15:03:33;3.22;;;1.80;;
12519;SDS011;6325;49.540;8.364;2023-03-24T15:06:12;3.55;;;1.70;;
12519;SDS011;6325;49.540;8.364;2023-03-24T15:08:45;2.17;;;1.67;;
12519;SDS011;6325;49.540;8.364;2023-03-24T15:11:18;6.45;;;3.80;;
12519;SDS011;6325;49.540;8.364;2023-03-24T15:13:50;3.13;;;2.10;;
12519;SDS011;6325;49.540;8.364;2023-03-24T15:16:19;2.95;;;1.83;;
12519;SDS011;6325;49.540;8.364;2023-03-24T15:18:48;1.98;;;1.42;;
12519;SDS011;6325;49.540;8.364;2023-03-24T15:21:21;2.45;;;1.77;;
12519;SDS011;6325;49.540;8.364;2023-03-24T15:23:56;3.10;;;1.97;;
12519;SDS011;6325;49.540;8.364;2023-03-24T15:26:26;3.77;;;2.40;;
12519;SDS011;6325;49.540;8.364;2023-03-24T15:28:54;3.33;;;2.22;;
12519;SDS011;6325;49.540;8.364;2023-03-24T15:31:23;3.70;;;1.85;;
12519;SDS011;6325;49.540;8.364;2023-03-24T15:34:00;3.70;;;2.60;;
12519;SDS011;6325;49.540;8.364;2023-03-24T15:36:32;4.27;;;2.67;;
12519;SDS011;6325;49.540;8.364;2023-03-24T15:39:15;4.80;;;2.78;;
12519;SDS011;6325;49.540;8.364;2023-03-24T15:41:44;9.55;;;5.32;;
12519;SDS011;6325;49.540;8.364;2023-03-24T15:44:16;3.10;;;2.10;;
12519;SDS011;6325;49.540;8.364;2023-03-24T15:46:45;7.43;;;4.35;;
12519;SDS011;6325;49.540;8.364;2023-03-24T15:49:23;5.97;;;3.05;;
12519;SDS011;6325;49.540;8.364;2023-03-24T15:51:54;3.05;;;1.70;;
12519;SDS011;6325;49.540;8.364;2023-03-24T15:54:25;4.90;;;2.90;;